Maquoketa, IA

7:06 AM CDT on October 24, 2014 (GMT -0500)
Nightowl News ( MAQ Middle School) | Change Station
CLOSE
Current Station
Personal Weather Station
Location: Maquoketa, IA
Elevation: 755 ft
Nearby Weather Stations
Active Advisory: Dense Fog Advisory

Elev 755 ft 42.06 °N, 90.67 °W | Updated 13 minutes ago

Fog
Fog
47.9 °F
Feels Like 48 °F
N
0.0
Wind Variable Wind from West

Today
High -- | Low -- °F
--% Chance of Precip.
Yesterday
High -- | Low -- °F
Precip. -- in
7:25 AM 6:07 PM
New Moon, 0% visible
Pressure 30.05 in
Visibility 0.2 miles
Clouds
Windchill 48 °F
Dew Point 44 °F
Humidity 88%
Rainfall 0.00 in
Snow Depth Not available.
UV Not available.
Pollen 1.20 out of 12
Air Quality Not available.
Flu Activity Sporadic
METAR KDBQ 241153Z 16004KT 1/4SM R36/1000V1200FT FG VV001 10/10 A3003 RMK AO2 SLP174 70027 T01000100 10106 20100 58004

More Conditions Fewer Conditions

Pressure 30.05 in
Visibility 0.2 miles
Clouds
Windchill 48 °F
Dew Point 44 °F
Humidity 88%
Rainfall 0.00 in
Snow Depth Not available.
UV Not available.
Pollen 1.20 out of 12
Air Quality Not available.
Flu Activity Sporadic
METAR KDBQ 241153Z 16004KT 1/4SM R36/1000V1200FT FG VV001 10/10 A3003 RMK AO2 SLP174 70027 T01000100 10106 20100 58004

More Conditions Fewer Conditions

10-Day Weather Forecast

Almanac

Astronomy

Oct. 24, 2014 Rise Set
Actual Time 7:25 AM CDT 6:07 PM CDT
Civil Twilight 6:57 AM CDT 6:35 PM CDT
Nautical Twilight 6:24 AM CDT 7:08 PM CDT
Astronomical Twilight 5:52 AM CDT 7:40 PM CDT
Moon 8:05 AM CDT 6:46 PM CDT
Length of Visible Light 11h 38m
Length of Day
10h 41m
Tomorrow will be 2m 38s shorter.
New Moon, 0% of the Moon is Illuminated
Today
New Moon
Oct 30
First Quarter
Nov 6
Full
Nov 14
Last Quarter
Nov 22
New

Today's Extremes

State Highs State Lows

Community

WunderPhotos

Upload Photos

1,764,528 photos uploaded!

Nearby

Snow Depth

Station Depth Elevation
No new snow has been reported.

Earthquake Activity

City Distance Mag. Time & Date
No recent earthquake activity has been reported nearby.
Minimum magnitude displayed is 2.5.

Coastal Water Temperatures

Place Temperature
No Stations Reporting

Nearby Weather Stations